Weather at Ankeny Regional Airport

Public forecast

Using degrees Fahrenheit for public forecast. Weather courtesy of forecast.io.

Current aviation weather report (METAR) for Ankeny Regional Airport

Retrieved 2021/07/29 22:55 UTC (2 hours ago):

KIKV 292255Z AUTO 07005KT 10SM FEW040 FEW047 FEW060 31/24 A3003 RMK AO2

Closest aviation forecast (TAF) to Ankeny Regional Airport

Closest forecast is Des Moines International Airport, 10.4 nm (19.3 km) SSW. Retrieved 2021-07-30 00:39 UTC (11 minutes ago):

TAF KDSM 292337Z 3000/3024 03006KT P6SM SCT050 FM300600 06004KT 4SM FU FEW250 FM301500 08007KT P6SM SCT100